Αναφορές Αεροδρομίων

 

KSJC - San Jose, California, USA
Distance from station: ΒΑ 14km
Ενημερώθηκε: 22/01/2021 23:53
Εντονη βροχή, Συννεφιά
Εντονη βροχή, Συννεφιά
 Ανεμος από ΔΝΔ
Ανεμος: ΔΝΔ 9 km/h
Θερμοκρασία: 11°C
Σημείο Δρόσου: 6°C
Υγρασία: 72%
Βαρόμετρο: 1011.9 hPa
Περίληψη: Εντονη βροχή
Clouds: Συννεφιά
Visibility: 10 km
Cloud details: Λίγα Σύννεφα 30 m
Σχεδόν νεφελώδης 945 m
Συννεφιά 2438 m
2021/01/22 21:53 KSJC 222153Z 25005KT 6SM +RA FEW001 BKN031 OVC080 11/06 A2988 RMK AO2 RAB35 SLP118 P0005 T01060056
KNUQ - Moffett Nas/Mtn, California, USA
Distance from station: Β 14km
Ενημερώθηκε: 23/01/2021 00:10
Σχεδόν νεφελώδης
Σχεδόν νεφελώδης
 Ανεμος από ΔΝΔ
Ανεμος: ΔΝΔ 17 km/h
Θερμοκρασία: 11°C
Σημείο Δρόσου: 5°C
Υγρασία: 67%
Βαρόμετρο: 1011.5 hPa
Clouds: Σχεδόν νεφελώδης
Visibility: 16 km
Cloud details: Μερικώς νεφελώδης 1372 m
Μερικώς νεφελώδης 1676 m
Σχεδόν νεφελώδης 1981 m
2021/01/22 22:10 KNUQ 222210Z AUTO 24009KT 10SM SCT045 SCT055 BKN065 11/05 A2987 RMK AO2
 
KPAO - Palo Alto, California, USA
Distance from station: ΒΒΔ 23km
Ενημερώθηκε: 22/01/2021 23:47
Nearby showers, Σχεδόν νεφελώδης
Nearby showers, Σχεδόν νεφελώδης
 Ανεμος από ΝΝΔ
Ανεμος: ΝΝΔ 17 km/h
Θερμοκρασία: 11°C
Σημείο Δρόσου: 6°C
Υγρασία: 72%
Βαρόμετρο: 1011.9 hPa
Περίληψη: Nearby Showers
Clouds: Σχεδόν νεφελώδης
Visibility: 16 km
Cloud details: Σχεδόν νεφελώδης 610 m
Σχεδόν νεφελώδης 762 m
2021/01/22 21:47 KPAO 222147Z 21009KT 10SM VCSH BKN020 BKN025 11/06 A2988
KRHV - San Jose/Reid, California, USA
Distance from station: ΑΒΑ 19km
Ενημερώθηκε: 22/01/2021 22:47
NOT Current
Σχεδόν νεφελώδης
Σχεδόν νεφελώδης
 Ανεμος από ΑΒΑ
Ανεμος: ΑΒΑ 9 km/h
Θερμοκρασία: 10°C
Wind Chill: 9°C
Σημείο Δρόσου: 6°C
Υγρασία: 76%
Βαρόμετρο: 1012.9 hPa
Clouds: Σχεδόν νεφελώδης
Visibility: 13 km
Cloud details: Μερικώς νεφελώδης 518 m
Σχεδόν νεφελώδης 914 m
2021/01/22 20:47 KRHV 222047Z 06005KT 8SM SCT017 BKN030 10/06 A2991
 
KOAK - Oakland, California, USA
Distance from station: ΒΒΔ 50km
Ενημερώθηκε: 22/01/2021 23:53
Συννεφιά
Συννεφιά
 Ανεμος από ΝΝΔ
Ανεμος: ΝΝΔ 22 km/h
Θερμοκρασία: 13°C
Σημείο Δρόσου: 7°C
Υγρασία: 67%
Βαρόμετρο: 1011.5 hPa
Clouds: Συννεφιά
Visibility: 16 km
Cloud details: Μερικώς νεφελώδης 884 m
Σχεδόν νεφελώδης 1158 m
Συννεφιά 1829 m
2021/01/22 21:53 KOAK 222153Z 21012KT 10SM SCT029 BKN038 OVC060 13/07 A2987 RMK AO2 SLP116 T01330067
KSQL - San Carlos Airpo, California, USA
Distance from station: ΒΔ 34km
Ενημερώθηκε: 23/01/2021 00:02
Σχεδόν νεφελώδης
Σχεδόν νεφελώδης
 Ανεμος από Ν
Ανεμος: Ν 11 km/h
Θερμοκρασία: 12°C
Σημείο Δρόσου: 7°C
Υγρασία: 72%
Βαρόμετρο: 1011.5 hPa
Clouds: Σχεδόν νεφελώδης
Visibility: 16 km
Cloud details: Λίγα Σύννεφα 853 m
Σχεδόν νεφελώδης 2438 m
2021/01/22 22:02 KSQL 222202Z 17006KT 10SM FEW028 BKN080 12/07 A2987
 
KSFO - San Francisco, California, USA
Distance from station: ΒΔ 49km
Ενημερώθηκε: 22/01/2021 23:56
Σχεδόν νεφελώδης
Σχεδόν νεφελώδης
 Ανεμος από ΝΝΔ
Ανεμος: ΝΝΔ 15 km/h
Θερμοκρασία: 12°C
Σημείο Δρόσου: 6°C
Υγρασία: 67%
Βαρόμετρο: 1011.2 hPa
Clouds: Σχεδόν νεφελώδης
Visibility: 16 km
Cloud details: Λίγα Σύννεφα 640 m
Μερικώς νεφελώδης 1158 m
Μερικώς νεφελώδης 1494 m
Σχεδόν νεφελώδης 6096 m
2021/01/22 21:56 KSFO 222156Z 21008KT 10SM FEW021 SCT038 SCT049 BKN200 12/06 A2986 RMK AO2 RAB29E38 SLP109 P0000 T01170061 $
KE16 - San Martin, California, USA
Distance from station: ΑΝΑ 43km
Ενημερώθηκε: 23/01/2021 00:15
Συννεφιά
Συννεφιά
 Ανεμος από calm
Ανεμος: Απνοια
Θερμοκρασία: 9°C
Σημείο Δρόσου: 6°C
Υγρασία: 82%
Βαρόμετρο: 1012.5 hPa
Clouds: Συννεφιά
Visibility: 16 km
Cloud details: Μερικώς νεφελώδης 701 m
Σχεδόν νεφελώδης 914 m
Συννεφιά 1036 m
2021/01/22 22:15 KE16 222215Z AUTO 00000KT 10SM SCT023 BKN030 OVC034 09/06 A2990 RMK AO2
 
KWVI - Watsonville, California, USA
Distance from station: ΝΝΑ 44km
Ενημερώθηκε: 22/01/2021 23:53
Ασθενής βροχή, Συννεφιά
Ασθενής βροχή, Συννεφιά
 Ανεμος από ΔΝΔ
Ανεμος: ΔΝΔ 15 km/h
Θερμοκρασία: 10°C
Wind Chill: 8°C
Σημείο Δρόσου: 8°C
Υγρασία: 88%
Βαρόμετρο: 1012.9 hPa
Περίληψη: Ασθενής βροχή
Clouds: Συννεφιά
Visibility: 14 km
Cloud details: Λίγα Σύννεφα 488 m
Σχεδόν νεφελώδης 1280 m
Συννεφιά 1524 m
2021/01/22 21:53 KWVI 222153Z AUTO 25008KT 9SM -RA FEW016 BKN042 OVC050 10/08 A2991 RMK AO2 RAB18 SLP127 P0006 T01000083
KHAF - Half Moon Bay, California, USA
Distance from station: ΔΒΔ 50km
Ενημερώθηκε: 23/01/2021 00:15
Ασθενής βροχή, Σχεδόν νεφελώδης
Ασθενής βροχή, Σχεδόν νεφελώδης
 Ανεμος από calm
Ανεμος: Απνοια
Θερμοκρασία: 9°C
Σημείο Δρόσου: 8°C
Υγρασία: 94%
Βαρόμετρο: 1011.5 hPa
Περίληψη: Ασθενής βροχή
Clouds: Σχεδόν νεφελώδης
Visibility: 5 km
Cloud details: Λίγα Σύννεφα 488 m
Μερικώς νεφελώδης 823 m
Σχεδόν νεφελώδης 1097 m
2021/01/22 22:15 KHAF 222215Z AUTO 00000KT 3SM -RA FEW016 SCT027 BKN036 09/08 A2987 RMK AO2
 
KHWD - Hayward, California, USA
Distance from station: Β 44km
Ενημερώθηκε: 22/01/2021 23:54
Ασθενής βροχή, Σχεδόν νεφελώδης
Ασθενής βροχή, Σχεδόν νεφελώδης
 Ανεμος από ΝΝΔ
Ανεμος: ΝΝΔ 22 km/h
Θερμοκρασία: 11°C
Σημείο Δρόσου: 6°C
Υγρασία: 72%
Βαρόμετρο: 1011.2 hPa
Περίληψη: Ασθενής βροχή
Clouds: Σχεδόν νεφελώδης
Visibility: 16 km
Cloud details: Λίγα Σύννεφα 762 m
Μερικώς νεφελώδης 1097 m
Σχεδόν νεφελώδης 1311 m
2021/01/22 21:54 KHWD 222154Z 21012KT 10SM -RA FEW025 SCT036 BKN043 11/06 A2986 RMK AO2 RAB34 SLP121 P0000 T01110056
KLVK - Livermore, California, USA
Distance from station: ΒΒΑ 51km
Ενημερώθηκε: 22/01/2021 23:53
Σχεδόν νεφελώδης
Σχεδόν νεφελώδης
 Ανεμος από ΝΝΔ
Ανεμος: ΝΝΔ 13 km/h
Θερμοκρασία: 10°C
Wind Chill: 8°C
Σημείο Δρόσου: 7°C
Υγρασία: 82%
Βαρόμετρο: 1011.2 hPa
Clouds: Σχεδόν νεφελώδης
Visibility: 16 km
Cloud details: Μερικώς νεφελώδης 1433 m
Σχεδόν νεφελώδης 3048 m
2021/01/22 21:53 KLVK 222153Z 21007KT 10SM SCT047 BKN100 10/07 A2986 RMK AO2 RAB07E40 SLP109 P0002 T01000067